Flight Track Log - Related Links

Times and Time Zones

All times are in EDT time to prevent confusion due to time zone crossing. See the SWA565 flight status page for this flight to view local times or setup timezone preferences in your user account.

Time Position Orientation Groundspeed Altitude Reporting Facility
EDT Latitude Longitude Course Direction KTS MPH feet Rate Location/Type
Tue 01:31:37 AM 36.0375 -115.1889 205° Southwest 192 221 5,000  Level Los Angeles Center
Tue 01:32:12 AM 36.0161 -115.2039 210° Southwest 185 213 6,400 2,364 Climbing Los Angeles Center
Tue 01:32:43 AM 36.0039 -115.2531 253° West 235 270 7,600 2,361 Climbing Los Angeles Center
Tue 01:33:13 AM 35.9900 -115.2781 236° Southwest 231 266 8,800 2,152 Climbing Los Angeles Center
Tue 01:34:15 AM 35.9178 -115.3081 199° South 262 302 10,900 2,732 Climbing Los Angeles Center
Tue 01:35:16 AM 35.8267 -115.3131 183° South 305 351 14,400 2,754 Climbing Los Angeles Center
Tue 01:36:17 AM 35.7311 -115.2994 173° South 336 387 16,500 2,852 Climbing Los Angeles Center
Tue 01:37:18 AM 35.6361 -115.3519 204° Southwest 327 376 20,200 2,754 Climbing Los Angeles Center
Tue 01:38:19 AM 35.5783 -115.4300 228° Southwest 310 357 22,100 2,016 Climbing Los Angeles Center
Tue 01:39:20 AM 35.5153 -115.5150 228° Southwest 332 382 24,300 1,951 Climbing Los Angeles Center
Tue 01:40:22 AM 35.4589 -115.5903 227° Southwest 342 394 26,100 1,415 Climbing Los Angeles Center
Tue 01:41:23 AM 35.3944 -115.6769 228° Southwest 343 395 27,200 1,230 Climbing Los Angeles Center
Tue 01:42:24 AM 35.3244 -115.7706 228° Southwest 366 421 28,600 1,475 Climbing Los Angeles Center
Tue 01:43:25 AM 35.2394 -115.8819 227° Southwest 373 429 30,200 1,525 Climbing Los Angeles Center
Tue 01:44:26 AM 35.1694 -115.9756 228° Southwest 373 429 31,700 1,475 Climbing Los Angeles Center
Tue 01:45:27 AM 35.1000 -116.0669 227° Southwest 369 425 33,200 1,366 Climbing Los Angeles Center
Tue 01:46:29 AM 35.0314 -116.1575 227° Southwest 365 420 34,500 1,122 Climbing Los Angeles Center
Tue 01:47:30 AM 34.9622 -116.2464 226° Southwest 362 417 35,500 738 Climbing Los Angeles Center
Tue 01:48:31 AM 34.8917 -116.3361 226° Southwest 363 418 36,000 246 Climbing Los Angeles Center
Tue 01:49:32 AM 34.8236 -116.4267 228° Southwest 365 420 36,000  Level Los Angeles Center
Tue 01:50:33 AM 34.8186 -116.5417 267° West 363 418 36,000  Level Los Angeles Center
Tue 01:51:34 AM 34.8522 -116.6569 290° West 363 418 36,000  Level Los Angeles Center
Tue 01:52:35 AM 34.8853 -116.7750 289° West 367 422 36,000  Level Los Angeles Center
Tue 01:53:36 AM 34.9211 -116.8956 290° West 375 432 36,000  Level Los Angeles Center
Tue 01:54:37 AM 34.9561 -117.0150 290° West 377 434 36,000  Level Los Angeles Center
Tue 01:55:38 AM 34.9956 -117.1569 289° West 370 426 36,000  Level Los Angeles Center
Tue 01:56:38 AM 35.0297 -117.2731 290° West 367 422 36,000  Level Los Angeles Center
Tue 01:57:39 AM 35.0628 -117.3889 289° West 364 419 36,000  Level Los Angeles Center
Tue 01:58:40 AM 35.0958 -117.5028 290° West 362 417 36,000 49 Level Los Angeles Center
Tue 01:59:41 AM 35.1294 -117.6225 289° West 370 426 36,100  Climbing Los Angeles Center
Tue 02:00:42 AM 35.1628 -117.7392 289° West 381 438 36,000 -49 Descending Los Angeles Center
Tue 02:01:43 AM 35.1950 -117.8572 288° West 372 428 36,000  Level Los Angeles Center
Tue 02:02:43 AM 35.2217 -117.9525 289° West 371 427 36,000  Level Los Angeles Center
Tue 02:03:45 AM 35.2669 -118.1158 289° West 363 418 36,000  Level Los Angeles Center
Tue 02:04:45 AM 35.2983 -118.2294 289° West 354 407 36,000  Level Los Angeles Center
Tue 02:05:46 AM 35.3311 -118.3483 289° West 366 421 36,000  Level Los Angeles Center
Tue 02:06:47 AM 35.3639 -118.4661 289° West 366 421 36,000  Level Los Angeles Center
Tue 02:07:48 AM 35.3939 -118.5722 289° West 356 410 36,000  Level Los Angeles Center
Tue 02:08:49 AM 35.4247 -118.6872 288° West 354 407 36,000  Level Los Angeles Center
Tue 02:09:50 AM 35.4544 -118.8028 288° West 356 410 36,000  Level Los Angeles Center
Tue 02:10:50 AM 35.4869 -118.9194 289° West 361 415 36,000  Level Los Angeles Center
Tue 02:11:51 AM 35.5239 -119.0575 288° West 356 410 36,000  Level Los Angeles Center
Tue 02:12:52 AM 35.5556 -119.1742 288° West 360 414 36,000  Level Los Angeles Center
Tue 02:13:53 AM 35.5864 -119.2886 288° West 355 409 36,000  Level Los Angeles Center
Tue 02:14:53 AM 35.6167 -119.4050 288° West 357 411 36,000  Level Los Angeles Center
Tue 02:15:15 AM 35.6261 -119.4489 285° West 358 412 36,000  Level Oakland Center
Tue 02:16:16 AM 35.6561 -119.5633 288° West 355 409 36,000  Level Oakland Center
Tue 02:17:16 AM 35.6861 -119.6778 288° West 355 409 36,000 -50 Level Oakland Center
Tue 02:18:17 AM 35.7158 -119.7897 288° West 349 402 35,900  Descending Oakland Center
Tue 02:19:17 AM 35.7444 -119.9008 288° West 345 397 36,000 50 Climbing Oakland Center
Tue 02:20:18 AM 35.7733 -120.0106 288° West 341 392 36,000  Level Oakland Center
Tue 02:21:18 AM 35.8025 -120.1231 288° West 347 399 36,000  Level Oakland Center
Tue 02:23:00 AM 35.8497 -120.3047 288° West  Level FlightAware Approximate
Tue 02:25:20 AM 35.9183 -120.5794 283° West 350 403 36,000  Level Oakland Center
Tue 02:26:21 AM 35.9567 -120.6894 293° West 356 410 35,900  Descending Oakland Center
Tue 02:27:21 AM 36.0175 -120.7861 308° West 359 413 36,000 50 Climbing Oakland Center
Tue 02:28:22 AM 36.0792 -120.8858 307° West 366 421 36,000  Level Oakland Center
Tue 02:29:22 AM 36.1389 -120.9800 308° West 352 405 36,000  Level Oakland Center
Tue 02:30:00 AM 36.0494 -121.0854 283° West  Level FlightAware Approximate
Tue 02:30:23 AM 36.2119 -121.0942 308° West 356 410 36,000  Level Oakland Center
Tue 02:31:24 AM 36.2725 -121.1922 307° West 358 412 35,300 -1,587 Descending Oakland Center
Tue 02:32:24 AM 36.3308 -121.2892 307° West 353 406 32,800 -2,350 Descending Oakland Center
Tue 02:33:24 AM 36.3906 -121.3836 308° West 349 402 30,600 -2,182 Descending Oakland Center
Tue 02:34:25 AM 36.4500 -121.4792 308° West 352 405 28,400 -2,033 Descending Oakland Center
Tue 02:35:25 AM 36.5044 -121.5681 307° West 326 375 26,500 -1,388 Descending Oakland Center
Tue 02:36:26 AM 36.5558 -121.6528 307° West 311 358 25,600 -1,190 Descending Oakland Center
Tue 02:37:26 AM 36.6061 -121.7358 307° West 302 348 24,100 -1,680 Descending Oakland Center
Tue 02:37:41 AM 36.6167 -121.7667 293° West 314 361 23,500 -2,087 Descending Northern Cal TRACON
Tue 02:38:35 AM 36.6667 -121.8333 313° West 406 467 21,700 -2,000 Descending Northern Cal TRACON
Tue 02:39:41 AM 36.7167 -121.9167 307° West 263 303 19,500 -1,952 Descending Northern Cal TRACON
Tue 02:40:41 AM 36.7833 -121.9667 329° Northwest 290 334 17,600 -1,983 Descending Northern Cal TRACON
Tue 02:41:36 AM 36.8500 -122.0000 338° Northwest 310 357 15,700 -2,035 Descending Northern Cal TRACON
Tue 02:42:36 AM 36.9333 -122.0167 351° North 291 335 13,700 -1,965 Descending Northern Cal TRACON
Tue 02:43:29 AM 37.0019 -122.0303 351° North 289 333 12,000 -1,274 Descending Oakland Center
Tue 02:44:29 AM 37.0758 -122.0514 347° North 274 315 11,300 -1,091 Descending Oakland Center
Tue 02:45:30 AM 37.1539 -122.0711 349° North 283 326 9,800 -1,438 Descending Oakland Center
Tue 02:46:30 AM 37.2242 -122.0892 348° North 262 302 8,400 -1,041 Descending Oakland Center
Tue 02:47:31 AM 37.2914 -122.1075 348° North 250 288 7,700 -1,091 Descending Oakland Center
Tue 02:48:31 AM 37.3597 -122.1256 348° North 248 285 6,200 -1,400 Descending Oakland Center
Tue 02:49:31 AM 37.4231 -122.1489 344° North 242 278 4,900 -1,190 Descending Oakland Center
Tue 02:50:32 AM 37.4853 -122.1717 344° North 237 273 3,800 -1,140 Descending Oakland Center
Tue 02:51:32 AM 37.5419 -122.2022 337° Northwest 230 265 2,600 -1,041 Descending Oakland Center
Tue 02:52:33 AM 37.5711 -122.2583 303° West 204 235 1,700 -843 Descending Oakland Center
Tue 02:53:33 AM 37.5906 -122.3081 296° West 180 207 900 -750 Descending Oakland Center
Tue 02:54:33 AM 37.6064 -122.3456 298° West 144 166 200 -700 Descending Oakland Center
Tue 02:56:00 AM 37.6167 -122.3667 322° Northwest  Level FlightAware Approximate
Tue 03:03:00 AM 37.6191 -122.3752 322° Northwest  Level Estimated

Login

Don't have an account? Register now (free) for customized features, flight alerts, and more!